Time;durP1;ratioP1;P1;durP2;ratioP2;P2;SDS_P1;SDS_P2;PMS_P1;PMS_P2;Temp;Humidity;BMP_temperature;BMP_pressure;BME280_temperature;BME280_humidity;BME280_pressure;Samples;Min_cycle;Max_cycle;Signal;HPM_P1;HPM_P2
2023/11/16 00:01:05;;;;;;;49.70;6.22;;;;;;;;;;5025745;28;20036;-36
2023/11/16 00:03:32;;;;;;;47.83;7.28;;;;;;;;;;5039752;28;20029;-40
2023/11/16 00:05:59;;;;;;;47.88;6.75;;;;;;;;;;5046318;28;20049;-36
2023/11/16 00:08:26;;;;;;;42.72;6.03;;;;;;;;;;5031417;28;20032;-39
2023/11/16 00:10:54;;;;;;;44.65;6.80;;;;;;;;;;5045041;28;20021;-39
2023/11/16 00:13:21;;;;;;;42.63;6.00;;;;;;;;;;5039507;28;20041;-36
2023/11/16 00:15:49;;;;;;;61.30;7.53;;;;;;;;;;5013299;28;20041;-42
2023/11/16 00:18:17;;;;;;;44.25;6.68;;;;;;;;;;5033376;28;20036;-39
2023/11/16 00:20:44;;;;;;;37.00;6.00;;;;;;;;;;5046864;28;20091;-45
2023/11/16 00:23:12;;;;;;;38.22;6.20;;;;;;;;;;5049482;28;20032;-44
2023/11/16 00:25:39;;;;;;;35.92;5.13;;;;;;;;;;5025281;28;20391;-43
2023/11/16 00:28:06;;;;;;;44.17;6.43;;;;;;;;;;5042528;28;20248;-44
2023/11/16 00:30:34;;;;;;;26.77;5.55;;;;;;;;;;5047129;28;20154;-45
2023/11/16 00:33:02;;;;;;;38.92;6.25;;;;;;;;;;5050483;28;20463;-45
2023/11/16 00:35:30;;;;;;;58.63;7.45;;;;;;;;;;5044177;28;20025;-45
2023/11/16 00:37:59;;;;;;;55.90;7.70;;;;;;;;;;5049924;28;20037;-45
2023/11/16 00:40:32;;;;;;;48.63;7.72;;;;;;;;;;5022871;28;20040;-45
2023/11/16 00:42:59;;;;;;;52.97;8.15;;;;;;;;;;5035508;28;20116;-43
2023/11/16 00:45:27;;;;;;;69.13;9.25;;;;;;;;;;5028993;28;20084;-43
2023/11/16 00:47:56;;;;;;;67.30;8.77;;;;;;;;;;5050764;28;20067;-43
2023/11/16 00:50:23;;;;;;;80.97;11.13;;;;;;;;;;5016950;28;20579;-43
2023/11/16 00:52:51;;;;;;;68.68;11.23;;;;;;;;;;5032043;28;20552;-43
2023/11/16 00:55:18;;;;;;;68.22;10.73;;;;;;;;;;5031402;28;20052;-44
2023/11/16 00:57:47;;;;;;;66.13;8.85;;;;;;;;;;5051000;28;20095;-45
2023/11/16 01:00:18;;;;;;;52.50;8.65;;;;;;;;;;5040137;28;20060;-46
2023/11/16 01:02:49;;;;;;;44.63;6.93;;;;;;;;;;5050873;28;20032;-42
2023/11/16 01:05:17;;;;;;;42.45;7.57;;;;;;;;;;5041778;28;20049;-44
2023/11/16 01:07:45;;;;;;;53.40;8.77;;;;;;;;;;5050840;28;20041;-44
2023/11/16 01:10:17;;;;;;;36.58;6.57;;;;;;;;;;5043605;28;20493;-44
2023/11/16 01:12:45;;;;;;;39.13;6.72;;;;;;;;;;5050596;28;20047;-44
2023/11/16 01:15:14;;;;;;;49.10;7.18;;;;;;;;;;5043948;28;20033;-45
2023/11/16 01:17:45;;;;;;;31.05;6.38;;;;;;;;;;5050494;28;20045;-45
2023/11/16 01:20:22;;;;;;;43.65;6.50;;;;;;;;;;5049982;28;20044;-45
2023/11/16 01:23:11;;;;;;;33.00;6.15;;;;;;;;;;5032135;28;20048;-44
2023/11/16 01:25:51;;;;;;;39.95;5.75;;;;;;;;;;5050207;28;20093;-43
2023/11/16 01:28:20;;;;;;;36.17;6.15;;;;;;;;;;5033153;28;20380;-45
2023/11/16 01:30:50;;;;;;;33.28;6.03;;;;;;;;;;5045943;28;20133;-44
2023/11/16 01:33:19;;;;;;;47.22;5.95;;;;;;;;;;5054088;28;20028;-43
2023/11/16 01:35:47;;;;;;;40.53;6.60;;;;;;;;;;5054257;28;20040;-47
2023/11/16 01:38:15;;;;;;;29.42;5.85;;;;;;;;;;5035915;28;20102;-43
2023/11/16 01:40:42;;;;;;;39.28;6.00;;;;;;;;;;5054307;28;20028;-43
2023/11/16 01:43:10;;;;;;;29.95;5.45;;;;;;;;;;5053669;28;20581;-43
2023/11/16 01:45:39;;;;;;;25.42;5.75;;;;;;;;;;5054060;28;20041;-43
2023/11/16 01:48:08;;;;;;;26.00;6.03;;;;;;;;;;5035543;28;20044;-41
2023/11/16 01:50:36;;;;;;;28.52;5.30;;;;;;;;;;5046847;28;20112;-45
2023/11/16 01:53:13;;;;;;;74.05;7.72;;;;;;;;;;5053416;28;20040;-44
2023/11/16 01:55:41;;;;;;;28.63;6.03;;;;;;;;;;5038023;28;20068;-44
2023/11/16 01:58:10;;;;;;;32.30;6.03;;;;;;;;;;5032626;28;20420;-46
2023/11/16 02:00:42;;;;;;;29.65;5.00;;;;;;;;;;5034599;28;20041;-46
2023/11/16 02:03:11;;;;;;;29.20;6.40;;;;;;;;;;5051669;28;20056;-46
2023/11/16 02:05:39;;;;;;;28.83;5.72;;;;;;;;;;5053137;28;20048;-46
2023/11/16 02:08:11;;;;;;;27.90;4.85;;;;;;;;;;5032743;28;20059;-46
2023/11/16 02:10:41;;;;;;;25.67;4.43;;;;;;;;;;5035241;28;20102;-44
2023/11/16 02:13:27;;;;;;;23.92;4.30;;;;;;;;;;5050632;28;20094;-46
2023/11/16 02:15:57;;;;;;;16.15;4.35;;;;;;;;;;5050381;28;20149;-45
2023/11/16 02:18:30;;;;;;;15.80;3.80;;;;;;;;;;5035777;28;20044;-45
2023/11/16 02:20:58;;;;;;;19.55;4.03;;;;;;;;;;5052456;28;20028;-44
2023/11/16 02:23:26;;;;;;;19.58;4.07;;;;;;;;;;5052422;28;20035;-44
2023/11/16 02:25:56;;;;;;;20.45;4.43;;;;;;;;;;5053391;28;20057;-46
2023/11/16 02:28:24;;;;;;;18.80;4.50;;;;;;;;;;5034876;28;20551;-44
2023/11/16 02:30:53;;;;;;;18.08;4.28;;;;;;;;;;5052866;28;20497;-43
2023/11/16 02:33:21;;;;;;;22.45;3.63;;;;;;;;;;5052661;28;20399;-44
2023/11/16 02:35:52;;;;;;;18.25;3.72;;;;;;;;;;5034630;28;20388;-45
2023/11/16 02:38:20;;;;;;;15.15;3.38;;;;;;;;;;5050696;28;20045;-45
2023/11/16 02:40:51;;;;;;;31.00;4.90;;;;;;;;;;5051730;28;20048;-44
2023/11/16 02:43:20;;;;;;;18.65;3.75;;;;;;;;;;5050448;28;20031;-46
2023/11/16 02:45:51;;;;;;;17.65;3.42;;;;;;;;;;5051119;28;20074;-47
2023/11/16 02:48:18;;;;;;;16.33;3.60;;;;;;;;;;5050940;28;20092;-45
2023/11/16 02:50:46;;;;;;;17.25;3.22;;;;;;;;;;5053297;28;20044;-45
2023/11/16 02:53:13;;;;;;;13.85;3.17;;;;;;;;;;5053059;28;20100;-45
2023/11/16 02:55:40;;;;;;;12.27;3.10;;;;;;;;;;5052876;28;20029;-45
2023/11/16 02:58:08;;;;;;;13.68;2.70;;;;;;;;;;5052943;28;20037;-47
2023/11/16 03:00:35;;;;;;;11.77;2.70;;;;;;;;;;5052824;28;20029;-45
2023/11/16 03:03:05;;;;;;;16.35;3.20;;;;;;;;;;5052890;28;20044;-45
2023/11/16 03:05:33;;;;;;;24.30;3.70;;;;;;;;;;5052795;28;20057;-45
2023/11/16 03:08:00;;;;;;;12.80;2.65;;;;;;;;;;5052744;28;20078;-46
2023/11/16 03:10:28;;;;;;;19.13;2.90;;;;;;;;;;5052907;28;20116;-45
2023/11/16 03:12:56;;;;;;;14.70;2.78;;;;;;;;;;5052862;28;20036;-45
2023/11/16 03:15:24;;;;;;;9.85;2.17;;;;;;;;;;5052728;28;20090;-45
2023/11/16 03:17:51;;;;;;;12.38;2.10;;;;;;;;;;5052715;28;20107;-45
2023/11/16 03:20:18;;;;;;;11.43;2.33;;;;;;;;;;5052794;28;20036;-44
2023/11/16 03:22:46;;;;;;;13.07;2.58;;;;;;;;;;5052601;28;20032;-43
2023/11/16 03:25:14;;;;;;;8.35;1.83;;;;;;;;;;5052754;28;20059;-43
2023/11/16 03:27:42;;;;;;;7.60;1.60;;;;;;;;;;5052581;28;20045;-43
2023/11/16 03:30:09;;;;;;;11.55;2.42;;;;;;;;;;5052348;28;20040;-43
2023/11/16 03:32:36;;;;;;;11.50;2.15;;;;;;;;;;5051215;28;20087;-45
2023/11/16 03:35:03;;;;;;;8.23;1.92;;;;;;;;;;5052421;28;20021;-43
2023/11/16 03:37:31;;;;;;;11.05;2.00;;;;;;;;;;5052368;28;20036;-43
2023/11/16 03:39:58;;;;;;;9.40;1.83;;;;;;;;;;5051692;28;20682;-44
2023/11/16 03:42:25;;;;;;;5.55;1.77;;;;;;;;;;5051050;28;20037;-43
2023/11/16 03:44:52;;;;;;;9.85;2.00;;;;;;;;;;5052230;28;20032;-43
2023/11/16 03:47:19;;;;;;;5.30;1.50;;;;;;;;;;5050919;28;20033;-45
2023/11/16 03:49:46;;;;;;;6.15;1.48;;;;;;;;;;5051085;28;20045;-44
2023/11/16 03:52:14;;;;;;;5.63;1.50;;;;;;;;;;5051813;28;20090;-44
2023/11/16 03:54:42;;;;;;;4.78;1.38;;;;;;;;;;5050559;28;20379;-43
2023/11/16 03:57:11;;;;;;;3.88;1.48;;;;;;;;;;5050669;28;20067;-44
2023/11/16 03:59:38;;;;;;;10.50;1.60;;;;;;;;;;5050831;28;20537;-44
2023/11/16 04:02:05;;;;;;;4.25;1.40;;;;;;;;;;5051847;28;20498;-45
2023/11/16 04:04:32;;;;;;;6.82;1.63;;;;;;;;;;5052010;28;20049;-45
2023/11/16 04:07:00;;;;;;;5.88;1.40;;;;;;;;;;5050444;28;20053;-43
2023/11/16 04:09:27;;;;;;;9.77;1.70;;;;;;;;;;5051834;28;20036;-43
2023/11/16 04:11:54;;;;;;;4.47;1.58;;;;;;;;;;5051601;28;20075;-45
2023/11/16 04:14:21;;;;;;;4.30;1.55;;;;;;;;;;5051674;28;20025;-43
2023/11/16 04:16:52;;;;;;;7.38;1.17;;;;;;;;;;5051713;28;20029;-43
2023/11/16 04:19:20;;;;;;;5.15;1.98;;;;;;;;;;5051465;28;20398;-44
2023/11/16 04:21:47;;;;;;;5.63;1.55;;;;;;;;;;5051435;28;20119;-42
2023/11/16 04:24:14;;;;;;;9.20;1.80;;;;;;;;;;5051510;28;20028;-43
2023/11/16 04:26:41;;;;;;;4.97;1.52;;;;;;;;;;5051647;28;20028;-45
2023/11/16 04:29:11;;;;;;;5.45;1.58;;;;;;;;;;5051713;28;20042;-42
2023/11/16 04:31:38;;;;;;;4.78;1.48;;;;;;;;;;5051364;28;20040;-43
2023/11/16 04:34:05;;;;;;;6.05;1.80;;;;;;;;;;5051413;28;20021;-43
2023/11/16 04:36:32;;;;;;;4.68;1.33;;;;;;;;;;5051369;28;20457;-44
2023/11/16 04:38:59;;;;;;;4.00;1.30;;;;;;;;;;5051274;28;20387;-43
2023/11/16 04:41:31;;;;;;;4.20;1.83;;;;;;;;;;5033480;28;20033;-41
2023/11/16 04:44:01;;;;;;;3.03;1.13;;;;;;;;;;5051724;28;20025;-44
2023/11/16 04:46:28;;;;;;;3.67;1.30;;;;;;;;;;5051358;28;20040;-45
2023/11/16 04:48:55;;;;;;;5.00;1.40;;;;;;;;;;5051348;28;20036;-46
2023/11/16 04:51:24;;;;;;;6.35;1.65;;;;;;;;;;5051381;28;20638;-43
2023/11/16 04:53:52;;;;;;;4.18;1.45;;;;;;;;;;5043462;28;20041;-43
2023/11/16 04:56:19;;;;;;;5.03;1.60;;;;;;;;;;5051277;28;20035;-43
2023/11/16 04:58:46;;;;;;;4.10;1.40;;;;;;;;;;5051239;28;20040;-42
2023/11/16 05:01:16;;;;;;;4.50;1.77;;;;;;;;;;5050986;28;20375;-43
2023/11/16 05:03:46;;;;;;;4.68;1.40;;;;;;;;;;5052582;28;20059;-43
2023/11/16 05:06:14;;;;;;;3.30;1.40;;;;;;;;;;5055091;28;20402;-45
2023/11/16 05:08:42;;;;;;;5.03;1.45;;;;;;;;;;5055132;28;20115;-44
2023/11/16 05:11:09;;;;;;;7.15;1.85;;;;;;;;;;5055349;28;20025;-47
2023/11/16 05:13:36;;;;;;;2.67;0.95;;;;;;;;;;5055169;28;20025;-44
2023/11/16 05:16:04;;;;;;;5.40;1.35;;;;;;;;;;5055213;28;20032;-42
2023/11/16 05:18:31;;;;;;;3.53;1.30;;;;;;;;;;5054969;28;20478;-43
2023/11/16 05:21:00;;;;;;;3.42;1.40;;;;;;;;;;5037292;28;20044;-44
2023/11/16 05:23:27;;;;;;;4.43;1.27;;;;;;;;;;5054742;28;20029;-45
2023/11/16 05:25:55;;;;;;;5.75;1.30;;;;;;;;;;5055015;28;20029;-44
2023/11/16 05:28:22;;;;;;;4.45;1.40;;;;;;;;;;5055001;28;20044;-44
2023/11/16 05:30:50;;;;;;;3.65;1.20;;;;;;;;;;5054952;28;20036;-45
2023/11/16 05:33:18;;;;;;;3.45;1.60;;;;;;;;;;5054631;28;20494;-44
2023/11/16 05:35:48;;;;;;;3.55;1.20;;;;;;;;;;5054678;28;20077;-45
2023/11/16 05:38:17;;;;;;;6.13;1.60;;;;;;;;;;5052067;28;20041;-44
2023/11/16 05:40:44;;;;;;;4.78;1.42;;;;;;;;;;5053884;28;20039;-42
2023/11/16 05:43:11;;;;;;;3.17;1.25;;;;;;;;;;5054625;28;20029;-41
2023/11/16 05:45:41;;;;;;;2.90;1.35;;;;;;;;;;5054669;28;20040;-43
2023/11/16 05:48:08;;;;;;;5.15;1.50;;;;;;;;;;5054536;28;20041;-41
2023/11/16 05:50:38;;;;;;;4.05;1.48;;;;;;;;;;5054567;28;20033;-41
2023/11/16 05:53:06;;;;;;;2.15;1.02;;;;;;;;;;5053800;28;20071;-43
2023/11/16 05:55:36;;;;;;;3.75;1.25;;;;;;;;;;5034972;28;20037;-46
2023/11/16 05:58:05;;;;;;;1.83;1.10;;;;;;;;;;5033147;28;20037;-41
2023/11/16 06:00:33;;;;;;;4.80;1.40;;;;;;;;;;5033131;28;20049;-45
2023/11/16 06:03:00;;;;;;;4.80;1.30;;;;;;;;;;5047469;28;20518;-43
2023/11/16 06:05:28;;;;;;;3.95;1.10;;;;;;;;;;5033675;28;20542;-43
2023/11/16 06:07:55;;;;;;;3.75;1.10;;;;;;;;;;5033175;28;20052;-42
2023/11/16 06:10:22;;;;;;;6.32;1.05;;;;;;;;;;5033115;28;20037;-42
2023/11/16 06:12:49;;;;;;;3.45;1.30;;;;;;;;;;5034142;28;20108;-41
2023/11/16 06:15:16;;;;;;;4.05;1.20;;;;;;;;;;5032976;28;20033;-44
2023/11/16 06:17:43;;;;;;;4.78;1.30;;;;;;;;;;5033962;28;20036;-44
2023/11/16 06:20:12;;;;;;;3.90;1.10;;;;;;;;;;5016356;28;20072;-46
2023/11/16 06:22:40;;;;;;;2.22;1.00;;;;;;;;;;5032815;28;20041;-42
2023/11/16 06:25:10;;;;;;;2.53;1.10;;;;;;;;;;5033740;28;20558;-42
2023/11/16 06:27:37;;;;;;;2.75;0.98;;;;;;;;;;5033807;28;20041;-43
2023/11/16 06:30:05;;;;;;;4.68;1.55;;;;;;;;;;5033725;28;20095;-42
2023/11/16 06:32:32;;;;;;;4.10;1.30;;;;;;;;;;5033702;28;20029;-44
2023/11/16 06:35:00;;;;;;;2.75;0.90;;;;;;;;;;5032546;28;20040;-45
2023/11/16 06:37:27;;;;;;;3.38;1.15;;;;;;;;;;5033519;28;20045;-46
2023/11/16 06:39:54;;;;;;;2.20;1.10;;;;;;;;;;5033706;28;20041;-44
2023/11/16 06:42:22;;;;;;;3.85;1.23;;;;;;;;;;5033553;28;20032;-45
2023/11/16 06:44:49;;;;;;;2.42;1.27;;;;;;;;;;5033762;28;20021;-45
2023/11/16 06:47:19;;;;;;;3.95;1.15;;;;;;;;;;5033427;28;20029;-43
2023/11/16 06:49:49;;;;;;;2.58;1.02;;;;;;;;;;5025114;28;20270;-41
2023/11/16 06:52:19;;;;;;;3.03;1.02;;;;;;;;;;5033477;28;20044;-43
2023/11/16 06:54:46;;;;;;;3.75;1.58;;;;;;;;;;5033215;28;20037;-43
2023/11/16 06:57:13;;;;;;;2.45;1.15;;;;;;;;;;5033302;28;20021;-42
2023/11/16 06:59:42;;;;;;;1.60;1.10;;;;;;;;;;5033750;28;20739;-44
2023/11/16 07:02:09;;;;;;;2.42;1.27;;;;;;;;;;5052832;28;20025;-43
2023/11/16 07:04:36;;;;;;;3.80;1.40;;;;;;;;;;5053238;28;20038;-44
2023/11/16 07:07:04;;;;;;;4.22;1.08;;;;;;;;;;5052642;28;20047;-44
2023/11/16 07:09:31;;;;;;;2.90;1.10;;;;;;;;;;5053120;28;20021;-42
2023/11/16 07:11:59;;;;;;;2.28;1.17;;;;;;;;;;5052807;28;20057;-41
2023/11/16 07:14:29;;;;;;;5.50;1.20;;;;;;;;;;5052971;28;20025;-43
2023/11/16 07:16:56;;;;;;;4.00;1.33;;;;;;;;;;5052800;28;20057;-44
2023/11/16 07:19:26;;;;;;;2.92;1.15;;;;;;;;;;5052846;28;20033;-45
2023/11/16 07:21:54;;;;;;;2.47;1.05;;;;;;;;;;5052611;28;20497;-44
2023/11/16 07:24:22;;;;;;;3.72;1.38;;;;;;;;;;5052778;28;20057;-44
2023/11/16 07:26:50;;;;;;;3.25;1.10;;;;;;;;;;5052110;28;20409;-44
2023/11/16 07:29:17;;;;;;;4.72;0.98;;;;;;;;;;5052503;28;20041;-44
2023/11/16 07:31:44;;;;;;;2.40;0.90;;;;;;;;;;5052542;28;20530;-45
2023/11/16 07:34:11;;;;;;;3.85;1.20;;;;;;;;;;5052574;28;20061;-44
2023/11/16 07:36:38;;;;;;;2.70;1.23;;;;;;;;;;5052656;28;20049;-45
2023/11/16 07:39:06;;;;;;;2.80;1.10;;;;;;;;;;5052472;28;20149;-45
2023/11/16 07:41:35;;;;;;;1.80;0.98;;;;;;;;;;5052198;28;20499;-44
2023/11/16 07:44:02;;;;;;;3.92;1.00;;;;;;;;;;5052300;28;20111;-44
2023/11/16 07:46:30;;;;;;;4.05;1.20;;;;;;;;;;5043445;28;20025;-42
2023/11/16 07:48:57;;;;;;;6.32;1.13;;;;;;;;;;5032316;28;20068;-43
2023/11/16 07:51:24;;;;;;;2.92;1.27;;;;;;;;;;5032375;28;20033;-42
2023/11/16 07:53:54;;;;;;;4.50;1.33;;;;;;;;;;5032206;28;20061;-43
2023/11/16 07:56:22;;;;;;;4.57;1.25;;;;;;;;;;5032184;28;20033;-44
2023/11/16 07:58:52;;;;;;;1.95;0.90;;;;;;;;;;5032109;28;20034;-44
2023/11/16 08:01:29;;;;;;;2.35;0.95;;;;;;;;;;5033036;28;20581;-40
2023/11/16 08:03:56;;;;;;;2.45;0.90;;;;;;;;;;5051891;28;20036;-45
2023/11/16 08:06:28;;;;;;;1.40;0.95;;;;;;;;;;5051831;28;20106;-45
2023/11/16 08:08:55;;;;;;;3.60;1.13;;;;;;;;;;5051801;28;20037;-45
2023/11/16 08:11:22;;;;;;;2.42;0.90;;;;;;;;;;5051862;28;20051;-42
2023/11/16 08:13:50;;;;;;;1.92;0.80;;;;;;;;;;5051877;28;20029;-41
2023/11/16 08:16:20;;;;;;;2.50;1.02;;;;;;;;;;5051567;28;20111;-45
2023/11/16 08:18:53;;;;;;;4.03;0.85;;;;;;;;;;5049692;28;20040;-42
2023/11/16 08:21:21;;;;;;;2.60;1.00;;;;;;;;;;5048622;28;20071;-44
2023/11/16 08:23:48;;;;;;;2.00;1.00;;;;;;;;;;5051061;28;20052;-41
2023/11/16 08:26:18;;;;;;;1.58;0.70;;;;;;;;;;5050916;28;20032;-45
2023/11/16 08:28:45;;;;;;;1.85;0.93;;;;;;;;;;5051338;28;20041;-43
2023/11/16 08:31:16;;;;;;;2.40;1.20;;;;;;;;;;5050927;28;20029;-44
2023/11/16 08:33:44;;;;;;;1.90;0.80;;;;;;;;;;5046514;28;20079;-46
2023/11/16 08:36:11;;;;;;;4.82;0.90;;;;;;;;;;5051026;28;20094;-43
2023/11/16 08:38:42;;;;;;;2.92;1.00;;;;;;;;;;5050069;28;20032;-41
2023/11/16 08:41:10;;;;;;;3.90;1.27;;;;;;;;;;5048511;28;20715;-45
2023/11/16 08:43:37;;;;;;;3.80;1.25;;;;;;;;;;5050926;28;20116;-45
2023/11/16 08:46:05;;;;;;;1.88;1.13;;;;;;;;;;5050796;28;20471;-44
2023/11/16 08:48:33;;;;;;;3.85;1.00;;;;;;;;;;5050687;28;20068;-44
2023/11/16 08:51:05;;;;;;;3.53;1.30;;;;;;;;;;5050805;28;20040;-43
2023/11/16 08:53:36;;;;;;;3.63;1.10;;;;;;;;;;5050659;28;20025;-43
2023/11/16 08:56:04;;;;;;;3.08;1.10;;;;;;;;;;5050697;28;20036;-43
2023/11/16 08:58:41;;;;;;;6.28;1.70;;;;;;;;;;5050302;28;20554;-43
2023/11/16 09:01:10;;;;;;;2.72;1.10;;;;;;;;;;5051145;28;20479;-41
2023/11/16 09:03:37;;;;;;;2.55;1.25;;;;;;;;;;5051011;28;20095;-43
2023/11/16 09:06:06;;;;;;;4.90;1.23;;;;;;;;;;5050880;28;20068;-41
2023/11/16 09:08:35;;;;;;;9.13;1.40;;;;;;;;;;5050007;28;20048;-43
2023/11/16 09:11:03;;;;;;;7.55;1.40;;;;;;;;;;5050777;28;20514;-44
2023/11/16 09:13:30;;;;;;;5.15;1.42;;;;;;;;;;5050640;28;20032;-44
2023/11/16 09:15:57;;;;;;;5.63;1.48;;;;;;;;;;5049825;28;20101;-43
2023/11/16 09:18:25;;;;;;;6.45;1.50;;;;;;;;;;5049410;28;20041;-44
2023/11/16 09:20:56;;;;;;;6.72;1.25;;;;;;;;;;5050755;28;20044;-45
2023/11/16 09:23:24;;;;;;;14.15;1.77;;;;;;;;;;5050858;28;20072;-45
2023/11/16 09:25:52;;;;;;;21.48;2.38;;;;;;;;;;5051069;28;20060;-44
2023/11/16 09:28:22;;;;;;;12.70;2.33;;;;;;;;;;5050904;28;20507;-44
2023/11/16 09:30:50;;;;;;;12.48;1.65;;;;;;;;;;5050312;28;20117;-46
2023/11/16 09:33:18;;;;;;;14.15;2.05;;;;;;;;;;5050464;28;20025;-46
2023/11/16 09:35:46;;;;;;;18.73;2.50;;;;;;;;;;5050691;28;20040;-46
2023/11/16 09:38:13;;;;;;;14.43;2.50;;;;;;;;;;5050547;28;20040;-45
2023/11/16 09:40:41;;;;;;;10.52;1.65;;;;;;;;;;5050687;28;20788;-46
2023/11/16 09:43:17;;;;;;;10.82;1.70;;;;;;;;;;5050607;28;20041;-45
2023/11/16 09:45:53;;;;;;;10.50;1.58;;;;;;;;;;5050768;28;20171;-46
2023/11/16 09:48:22;;;;;;;16.25;2.08;;;;;;;;;;5050832;28;20090;-45
2023/11/16 09:50:53;;;;;;;15.90;2.00;;;;;;;;;;5053454;28;20032;-45
2023/11/16 09:53:26;;;;;;;17.98;2.30;;;;;;;;;;5054552;28;20025;-45
2023/11/16 09:56:00;;;;;;;13.50;2.10;;;;;;;;;;5054400;28;20384;-46
2023/11/16 09:58:28;;;;;;;11.60;1.92;;;;;;;;;;5054346;28;20041;-45
2023/11/16 10:01:05;;;;;;;8.63;1.80;;;;;;;;;;5054284;28;20033;-47
2023/11/16 10:03:39;;;;;;;13.73;2.30;;;;;;;;;;5052659;28;20029;-46
2023/11/16 10:06:07;;;;;;;7.93;1.77;;;;;;;;;;5054064;28;20079;-45
2023/11/16 10:08:34;;;;;;;12.38;2.20;;;;;;;;;;5054220;28;20044;-45
2023/11/16 10:11:04;;;;;;;12.15;1.75;;;;;;;;;;5054065;28;20031;-46
2023/11/16 10:13:31;;;;;;;9.48;2.00;;;;;;;;;;5054048;28;20029;-45
2023/11/16 10:16:08;;;;;;;5.55;1.58;;;;;;;;;;5053944;28;20107;-45
2023/11/16 10:18:35;;;;;;;11.27;1.50;;;;;;;;;;5053797;28;20040;-44
2023/11/16 10:21:06;;;;;;;9.70;1.73;;;;;;;;;;5053939;28;20440;-45
2023/11/16 10:23:33;;;;;;;9.13;1.60;;;;;;;;;;5054085;28;20112;-43
2023/11/16 10:26:00;;;;;;;15.70;1.92;;;;;;;;;;5053991;28;20053;-45
2023/11/16 10:28:28;;;;;;;12.20;2.42;;;;;;;;;;5053956;28;20091;-46
2023/11/16 10:30:58;;;;;;;8.63;1.58;;;;;;;;;;5053828;28;20029;-45
2023/11/16 10:33:28;;;;;;;5.22;1.33;;;;;;;;;;5053739;28;20402;-44
2023/11/16 10:35:56;;;;;;;9.07;1.60;;;;;;;;;;5053698;28;20071;-44
2023/11/16 10:38:25;;;;;;;9.00;1.73;;;;;;;;;;5053655;28;20041;-43
2023/11/16 10:40:53;;;;;;;10.70;1.73;;;;;;;;;;5053421;28;20029;-46
2023/11/16 10:43:27;;;;;;;9.30;1.80;;;;;;;;;;5053869;28;20447;-45
2023/11/16 10:45:55;;;;;;;7.97;1.52;;;;;;;;;;5053692;28;20506;-45
2023/11/16 10:48:23;;;;;;;9.50;2.05;;;;;;;;;;5053557;28;20032;-42
2023/11/16 10:50:51;;;;;;;8.68;1.40;;;;;;;;;;5052195;28;20040;-46
2023/11/16 10:53:23;;;;;;;7.45;1.60;;;;;;;;;;5053415;28;20025;-45
2023/11/16 10:55:58;;;;;;;11.60;1.85;;;;;;;;;;5053219;28;20029;-41
2023/11/16 10:58:27;;;;;;;11.07;1.52;;;;;;;;;;5053334;28;20031;-44
2023/11/16 11:00:57;;;;;;;9.35;1.42;;;;;;;;;;5052377;28;20449;-44
2023/11/16 11:03:24;;;;;;;10.98;1.58;;;;;;;;;;5053322;28;20364;-45
2023/11/16 11:05:52;;;;;;;8.50;1.70;;;;;;;;;;5052818;28;20041;-47
2023/11/16 11:08:20;;;;;;;8.25;1.40;;;;;;;;;;5053163;28;20029;-45
2023/11/16 11:10:47;;;;;;;9.73;1.20;;;;;;;;;;5052940;28;20036;-45
2023/11/16 11:13:18;;;;;;;8.25;1.35;;;;;;;;;;5053119;28;20021;-45
2023/11/16 11:15:51;;;;;;;6.78;1.23;;;;;;;;;;5053039;28;20074;-44
2023/11/16 11:18:28;;;;;;;12.45;1.58;;;;;;;;;;5052881;28;20033;-45
2023/11/16 11:21:15;;;;;;;7.10;1.25;;;;;;;;;;5052957;28;20096;-45
2023/11/16 11:23:42;;;;;;;7.90;1.60;;;;;;;;;;5052638;28;20021;-46
2023/11/16 11:26:13;;;;;;;5.63;1.45;;;;;;;;;;5052826;28;20033;-44
2023/11/16 11:28:41;;;;;;;6.90;1.38;;;;;;;;;;5052606;28;20532;-43
2023/11/16 11:31:10;;;;;;;8.15;1.33;;;;;;;;;;5052521;28;20029;-44
2023/11/16 11:33:45;;;;;;;8.02;1.77;;;;;;;;;;5052516;28;20475;-43
2023/11/16 11:36:17;;;;;;;19.85;1.80;;;;;;;;;;5051055;28;20033;-47
2023/11/16 11:38:52;;;;;;;10.68;1.60;;;;;;;;;;5052518;28;20040;-45
2023/11/16 11:41:19;;;;;;;12.60;1.60;;;;;;;;;;5052402;28;20025;-42
2023/11/16 11:43:46;;;;;;;11.38;1.80;;;;;;;;;;5052432;28;20029;-42
2023/11/16 11:46:18;;;;;;;14.05;1.90;;;;;;;;;;5052473;28;20028;-44
2023/11/16 11:48:48;;;;;;;22.97;2.50;;;;;;;;;;5052305;28;20040;-45
2023/11/16 11:51:19;;;;;;;14.82;1.88;;;;;;;;;;5052178;28;20029;-46
2023/11/16 11:53:46;;;;;;;12.00;1.80;;;;;;;;;;5052119;28;20024;-46
2023/11/16 11:56:15;;;;;;;9.48;1.45;;;;;;;;;;5052300;28;20516;-44
2023/11/16 11:58:43;;;;;;;10.75;1.60;;;;;;;;;;5052021;28;20033;-43
2023/11/16 12:01:13;;;;;;;47.05;3.60;;;;;;;;;;5051742;28;20029;-43
2023/11/16 12:03:57;;;;;;;34.08;4.05;;;;;;;;;;5052058;28;20060;-42
2023/11/16 12:06:24;;;;;;;61.08;4.50;;;;;;;;;;5051684;28;20045;-44
2023/11/16 12:08:51;;;;;;;19.70;2.70;;;;;;;;;;5051902;28;20083;-43
2023/11/16 12:11:20;;;;;;;20.35;2.28;;;;;;;;;;5051906;28;20032;-46
2023/11/16 12:13:49;;;;;;;22.77;2.47;;;;;;;;;;5051182;28;20040;-46
2023/11/16 12:16:18;;;;;;;17.45;2.00;;;;;;;;;;5037482;28;20492;-46
2023/11/16 12:18:47;;;;;;;9.70;1.83;;;;;;;;;;5031678;28;20029;-41
2023/11/16 12:21:15;;;;;;;17.83;1.85;;;;;;;;;;5030565;28;20501;-44
2023/11/16 12:23:57;;;;;;;25.90;1.80;;;;;;;;;;5031448;28;20033;-44
2023/11/16 12:26:28;;;;;;;13.05;2.25;;;;;;;;;;5014017;28;20022;-46
2023/11/16 12:28:58;;;;;;;15.82;2.30;;;;;;;;;;5035026;28;20108;-44
2023/11/16 12:31:28;;;;;;;39.08;3.00;;;;;;;;;;5024079;28;20632;-41
2023/11/16 12:33:55;;;;;;;35.95;3.10;;;;;;;;;;5051256;28;20032;-45
2023/11/16 12:36:23;;;;;;;29.63;2.75;;;;;;;;;;5051590;28;20024;-43
2023/11/16 12:38:51;;;;;;;22.42;2.30;;;;;;;;;;5033913;28;20121;-45
2023/11/16 12:41:18;;;;;;;19.50;2.28;;;;;;;;;;5031281;28;20040;-45
2023/11/16 12:43:46;;;;;;;18.08;2.00;;;;;;;;;;5031579;28;20101;-46
2023/11/16 12:46:13;;;;;;;23.75;2.10;;;;;;;;;;5031681;28;20029;-45
2023/11/16 12:48:40;;;;;;;8.85;1.65;;;;;;;;;;5031583;28;20068;-45
2023/11/16 12:51:07;;;;;;;11.73;1.48;;;;;;;;;;5031516;28;20029;-46
2023/11/16 12:53:40;;;;;;;17.23;1.80;;;;;;;;;;5031524;28;20057;-45
2023/11/16 12:56:08;;;;;;;17.48;2.40;;;;;;;;;;5031373;28;20383;-45
2023/11/16 12:58:38;;;;;;;19.83;2.17;;;;;;;;;;5031485;28;20021;-46
2023/11/16 13:01:11;;;;;;;19.52;2.00;;;;;;;;;;5031357;28;20038;-45
2023/11/16 13:03:42;;;;;;;35.03;2.92;;;;;;;;;;5031254;28;20034;-44
2023/11/16 13:06:09;;;;;;;14.75;1.88;;;;;;;;;;5031211;28;20051;-45
2023/11/16 13:08:38;;;;;;;10.02;1.55;;;;;;;;;;5030166;28;20044;-43
2023/11/16 13:11:06;;;;;;;16.85;2.00;;;;;;;;;;5031198;28;20022;-42
2023/11/16 13:13:33;;;;;;;14.80;1.40;;;;;;;;;;5031462;28;20472;-41
2023/11/16 13:16:00;;;;;;;17.75;1.83;;;;;;;;;;5031370;28;20121;-40
2023/11/16 13:18:27;;;;;;;14.80;1.50;;;;;;;;;;5031159;28;20492;-41
2023/11/16 13:20:54;;;;;;;11.05;1.40;;;;;;;;;;5031242;28;20030;-40
2023/11/16 13:23:21;;;;;;;10.18;1.20;;;;;;;;;;5031290;28;20025;-41
2023/11/16 13:25:48;;;;;;;9.23;1.33;;;;;;;;;;5034083;28;20416;-45
2023/11/16 13:28:19;;;;;;;6.35;1.10;;;;;;;;;;5034986;28;20043;-45
2023/11/16 13:30:46;;;;;;;8.43;1.17;;;;;;;;;;5034826;28;20025;-45
2023/11/16 13:33:13;;;;;;;7.93;1.25;;;;;;;;;;5035088;28;20029;-44
2023/11/16 13:35:40;;;;;;;22.20;2.50;;;;;;;;;;5035038;28;20029;-43
2023/11/16 13:38:07;;;;;;;23.65;2.33;;;;;;;;;;5034844;28;20100;-45
2023/11/16 13:40:34;;;;;;;8.60;1.33;;;;;;;;;;5034770;28;20026;-45
2023/11/16 13:43:02;;;;;;;8.68;1.08;;;;;;;;;;5034821;28;20029;-45
2023/11/16 13:45:30;;;;;;;13.25;1.92;;;;;;;;;;5034679;28;20034;-43
2023/11/16 13:47:57;;;;;;;8.13;1.10;;;;;;;;;;5034906;28;20032;-38
2023/11/16 13:50:24;;;;;;;6.85;1.40;;;;;;;;;;5034691;28;20032;-39
2023/11/16 13:52:52;;;;;;;10.13;1.20;;;;;;;;;;5034502;28;20061;-41
2023/11/16 13:55:19;;;;;;;6.20;1.10;;;;;;;;;;5033280;28;20045;-40
2023/11/16 13:57:46;;;;;;;16.85;1.80;;;;;;;;;;5034497;28;20502;-40
2023/11/16 14:00:14;;;;;;;13.32;1.65;;;;;;;;;;5034485;28;20135;-39
2023/11/16 14:02:41;;;;;;;10.15;1.13;;;;;;;;;;5034461;28;20032;-41
2023/11/16 14:05:12;;;;;;;8.07;1.20;;;;;;;;;;5034231;28;20108;-42
2023/11/16 14:07:39;;;;;;;16.13;1.40;;;;;;;;;;5034275;28;20036;-40
2023/11/16 14:10:09;;;;;;;7.93;1.30;;;;;;;;;;5034303;28;20480;-44
2023/11/16 14:12:37;;;;;;;12.38;1.80;;;;;;;;;;5016956;28;20047;-44
2023/11/16 14:15:07;;;;;;;10.30;1.98;;;;;;;;;;5034200;28;20025;-44
2023/11/16 14:17:34;;;;;;;23.67;2.58;;;;;;;;;;5033868;28;20368;-43
2023/11/16 14:20:02;;;;;;;14.82;2.00;;;;;;;;;;5033933;28;20038;-45
2023/11/16 14:22:29;;;;;;;12.98;2.40;;;;;;;;;;5034011;28;20506;-44
2023/11/16 14:24:56;;;;;;;8.05;1.10;;;;;;;;;;5034091;28;20021;-39
2023/11/16 14:27:23;;;;;;;7.97;1.30;;;;;;;;;;5034088;28;20029;-43
2023/11/16 14:29:50;;;;;;;8.88;1.30;;;;;;;;;;5033805;28;20390;-45
2023/11/16 14:32:17;;;;;;;6.70;1.33;;;;;;;;;;5033727;28;20419;-45
2023/11/16 14:34:44;;;;;;;7.57;1.10;;;;;;;;;;5033918;28;20447;-41
2023/11/16 14:37:11;;;;;;;4.65;1.10;;;;;;;;;;5032586;28;20076;-39
2023/11/16 14:39:38;;;;;;;7.95;1.45;;;;;;;;;;5032351;28;20088;-45
2023/11/16 14:42:04;;;;;;;4.53;1.35;;;;;;;;;;5033642;28;20383;-40
2023/11/16 14:44:32;;;;;;;7.25;1.27;;;;;;;;;;5033712;28;20033;-43